Delta Virtual Airport Information Service

Kona International Airport

ICAO: PHKO Country: United States
Latitude: 19.7388 Longitude: -156.045
Latest Arrival : UAL1029 (1A) (KSFO-PHKO) Latest Departure : HAL107 (PHKO-PHNL)


WX CaptureLIVE
Data provided by noaa.gov | Fetched at 04:21:18

METAR : PHKO 030953Z AUTO 07003KT 10SM CLR 24/19 A2994

TAF : PHKO 030523Z 0306/0406 VRB05KT P6SM FEW030 SCT050 FM031600 07013KT P6SM SCT050 FM031800 20015KT P6SM VCSH BKN050


Runway Data for PHKO
Data provided by openaviationdata.com

Runway ID Mag Var Hdg Length Elevation Surface ILS Freq ILS Id ILS Slope
17 11 173° 11041 ft 47 ft Asphalt 109.7 IKOA 3
35 11 353° 11041 ft 47 ft Asphalt -- -- --

Kona International Airport, United States
Use only for reference purposes



Not for navigational purposes.